Time,TemperatureF,DewpointF,PressureIn,WindDirection,WindDirectionDegrees,WindSpeedMPH,WindSpeedGustMPH,Humidity,HourlyPrecipIn,Conditions,Clouds,dailyrainin,SoftwareType,DateUTC
2013-05-19 00:05:00,60.6,53.0,30.12,ENE,67,2.7,-999.0,76,-99.99,,,0.00,Acu-Link.com,2013-05-19 04:05:00,
2013-05-19 00:20:00,60.4,53.5,30.14,NNE,22,4.2,-999.0,78,-99.99,,,0.00,Acu-Link.com,2013-05-19 04:20:00,
2013-05-19 00:35:00,60.3,53.8,30.13,West,270,0.0,-999.0,79,-99.99,,,0.00,Acu-Link.com,2013-05-19 04:35:00,
2013-05-19 00:51:00,60.1,53.9,30.12,SSW,202,0.0,-999.0,80,-99.99,,,0.00,Acu-Link.com,2013-05-19 04:51:00,
2013-05-19 01:06:00,59.9,54.1,30.12,South,180,1.1,-999.0,81,-99.99,,,0.00,Acu-Link.com,2013-05-19 05:06:00,
2013-05-19 01:21:00,59.7,54.2,30.12,SW,225,2.2,-999.0,82,-99.99,,,0.00,Acu-Link.com,2013-05-19 05:21:00,
2013-05-19 01:37:00,59.7,54.2,30.12,West,270,0.0,-999.0,82,-99.99,,,0.00,Acu-Link.com,2013-05-19 05:37:00,
2013-05-19 01:52:00,59.7,54.5,30.10,SW,225,2.2,-999.0,83,-99.99,,,0.00,Acu-Link.com,2013-05-19 05:52:00,
2013-05-19 02:07:00,59.7,54.9,30.10,East,90,3.2,-999.0,84,-99.99,,,0.00,Acu-Link.com,2013-05-19 06:07:00,
2013-05-19 02:23:00,59.5,54.7,30.10,SW,225,1.7,-999.0,84,-99.99,,,0.00,Acu-Link.com,2013-05-19 06:23:00,
2013-05-19 02:38:00,59.5,54.7,30.10,SE,135,0.0,-999.0,84,-99.99,,,0.00,Acu-Link.com,2013-05-19 06:38:00,
2013-05-19 02:53:00,59.5,54.7,30.10,SSW,202,1.1,-999.0,84,-99.99,,,0.00,Acu-Link.com,2013-05-19 06:53:00,
2013-05-19 03:09:00,59.5,55.0,30.09,West,270,1.1,-999.0,85,-99.99,,,0.00,Acu-Link.com,2013-05-19 07:09:00,
2013-05-19 03:24:00,59.4,54.9,30.09,SE,135,0.0,-999.0,85,-99.99,,,0.00,Acu-Link.com,2013-05-19 07:24:00,
2013-05-19 03:39:00,59.4,55.2,30.09,SW,225,1.7,-999.0,86,-99.99,,,0.00,Acu-Link.com,2013-05-19 07:39:00,
2013-05-19 03:54:00,59.4,55.2,30.09,ESE,112,2.2,-999.0,86,-99.99,,,0.00,Acu-Link.com,2013-05-19 07:54:00,
2013-05-19 04:11:00,59.4,55.2,30.09,SSE,157,0.0,-999.0,86,-99.99,,,0.00,Acu-Link.com,2013-05-19 08:11:00,
2013-05-19 04:26:00,59.4,55.5,30.09,NNE,22,1.7,-999.0,87,-99.99,,,0.00,Acu-Link.com,2013-05-19 08:26:00,
2013-05-19 04:41:00,59.2,55.3,30.09,West,270,0.0,-999.0,87,-99.99,,,0.00,Acu-Link.com,2013-05-19 08:41:00,
2013-05-19 04:56:00,59.2,55.3,30.09,SW,225,2.2,-999.0,87,-99.99,,,0.00,Acu-Link.com,2013-05-19 08:56:00,
2013-05-19 05:11:00,59.2,55.3,30.09,SSE,157,2.7,-999.0,87,-99.99,,,0.00,Acu-Link.com,2013-05-19 09:11:00,
2013-05-19 05:26:00,59.0,56.1,30.09,West,270,0.0,-999.0,90,-99.99,,,0.00,Acu-Link.com,2013-05-19 09:26:00,
2013-05-19 05:41:00,58.3,56.3,30.09,West,270,0.0,-999.0,93,-99.99,,,0.00,Acu-Link.com,2013-05-19 09:41:00,
2013-05-19 05:57:00,57.9,55.9,30.09,South,180,0.0,-999.0,93,-99.99,,,0.00,Acu-Link.com,2013-05-19 09:57:00,
2013-05-19 06:12:00,57.7,55.7,30.09,SW,225,0.0,-999.0,93,-99.99,,,0.00,Acu-Link.com,2013-05-19 10:12:00,
2013-05-19 06:27:00,57.7,55.7,30.09,East,90,0.0,-999.0,93,-99.99,,,0.00,Acu-Link.com,2013-05-19 10:27:00,
2013-05-19 06:43:00,57.7,55.7,30.09,NNE,22,0.0,-999.0,93,-99.99,,,0.00,Acu-Link.com,2013-05-19 10:43:00,
2013-05-19 06:58:00,58.1,55.8,30.10,SSW,202,0.0,-999.0,92,-99.99,,,0.00,Acu-Link.com,2013-05-19 10:58:00,
2013-05-19 07:13:00,58.5,56.2,30.10,SW,225,0.0,-999.0,92,-99.99,,,0.00,Acu-Link.com,2013-05-19 11:13:00,
2013-05-19 07:29:00,59.0,56.4,30.10,WSW,247,0.0,-999.0,91,-99.99,,,0.00,Acu-Link.com,2013-05-19 11:29:00,
2013-05-19 07:44:00,59.2,56.6,30.11,West,270,0.0,-999.0,91,-99.99,,,0.00,Acu-Link.com,2013-05-19 11:44:00,
2013-05-19 07:59:00,59.5,56.6,30.12,SSW,202,0.0,-999.0,90,-99.99,,,0.00,Acu-Link.com,2013-05-19 11:59:00,
2013-05-19 08:14:00,59.7,56.8,30.12,WNW,292,0.0,-999.0,90,-99.99,,,0.00,Acu-Link.com,2013-05-19 12:14:00,
2013-05-19 08:30:00,60.1,56.8,30.12,NNE,22,2.7,-999.0,89,-99.99,,,0.00,Acu-Link.com,2013-05-19 12:30:00,
2013-05-19 08:45:00,60.1,56.8,30.12,NNW,337,1.7,-999.0,89,-99.99,,,0.00,Acu-Link.com,2013-05-19 12:45:00,
2013-05-19 09:00:00,60.6,57.0,30.13,WSW,247,1.7,-999.0,88,-99.99,,,0.00,Acu-Link.com,2013-05-19 13:00:00,
2013-05-19 09:15:00,61.3,57.4,30.13,East,90,2.2,-999.0,87,-99.99,,,0.00,Acu-Link.com,2013-05-19 13:15:00,
2013-05-19 09:30:00,62.1,57.5,30.13,ESE,112,4.2,-999.0,85,-99.99,,,0.00,Acu-Link.com,2013-05-19 13:30:00,
2013-05-19 09:46:00,62.2,57.6,30.12,WSW,247,2.7,-999.0,85,-99.99,,,0.00,Acu-Link.com,2013-05-19 13:46:00,
2013-05-19 10:01:00,63.3,58.0,30.12,East,90,0.0,-999.0,83,-99.99,,,0.00,Acu-Link.com,2013-05-19 14:01:00,
2013-05-19 10:16:00,63.0,57.8,30.11,East,90,2.7,-999.0,83,-99.99,,,0.00,Acu-Link.com,2013-05-19 14:16:00,
2013-05-19 10:32:00,63.7,58.1,30.12,East,90,5.8,-999.0,82,-99.99,,,0.00,Acu-Link.com,2013-05-19 14:32:00,
2013-05-19 10:47:00,63.5,57.9,30.12,ENE,67,2.2,-999.0,82,-99.99,,,0.00,Acu-Link.com,2013-05-19 14:47:00,
2013-05-19 11:02:00,64.4,58.4,30.12,NW,315,1.1,-999.0,81,-99.99,,,0.00,Acu-Link.com,2013-05-19 15:02:00,
2013-05-19 11:18:00,64.8,58.5,30.12,South,180,2.2,-999.0,80,-99.99,,,0.00,Acu-Link.com,2013-05-19 15:18:00,
2013-05-19 11:33:00,65.3,58.6,30.11,East,90,2.7,-999.0,79,-99.99,,,0.00,Acu-Link.com,2013-05-19 15:33:00,
2013-05-19 11:48:00,65.1,58.1,30.10,SSW,202,2.7,-999.0,78,-99.99,,,0.00,Acu-Link.com,2013-05-19 15:48:00,
2013-05-19 12:04:00,65.3,58.6,30.10,ESE,112,3.2,-999.0,79,-99.99,,,0.00,Acu-Link.com,2013-05-19 16:04:00,
2013-05-19 12:19:00,65.3,58.6,30.09,NNE,22,3.2,-999.0,79,-99.99,,,0.00,Acu-Link.com,2013-05-19 16:19:00,
2013-05-19 12:34:00,65.1,58.8,30.09,SE,135,2.7,-999.0,80,-99.99,,,0.00,Acu-Link.com,2013-05-19 16:34:00,
2013-05-19 12:50:00,64.9,58.6,30.09,West,270,2.2,-999.0,80,-99.99,,,0.00,Acu-Link.com,2013-05-19 16:50:00,
2013-05-19 13:05:00,65.3,58.6,30.08,SSE,157,2.7,-999.0,79,-99.99,,,0.00,Acu-Link.com,2013-05-19 17:05:00,
2013-05-19 13:20:00,65.3,59.0,30.08,West,270,3.2,-999.0,80,-99.99,,,0.00,Acu-Link.com,2013-05-19 17:20:00,
2013-05-19 13:35:00,66.0,59.3,30.07,NNW,337,1.1,-999.0,79,-99.99,,,0.00,Acu-Link.com,2013-05-19 17:35:00,
2013-05-19 13:50:00,66.2,59.5,30.07,SW,225,3.2,-999.0,79,-99.99,,,0.00,Acu-Link.com,2013-05-19 17:50:00,
2013-05-19 14:06:00,66.0,59.3,30.06,East,90,4.2,-999.0,79,-99.99,,,0.00,Acu-Link.com,2013-05-19 18:06:00,
2013-05-19 14:21:00,66.0,59.6,30.06,SSE,157,0.0,-999.0,80,-99.99,,,0.00,Acu-Link.com,2013-05-19 18:21:00,
2013-05-19 14:36:00,66.6,59.9,30.05,ENE,67,1.7,-999.0,79,-99.99,,,0.00,Acu-Link.com,2013-05-19 18:36:00,
2013-05-19 14:51:00,66.2,59.8,30.05,SSW,202,2.7,-999.0,80,-99.99,,,0.00,Acu-Link.com,2013-05-19 18:51:00,
2013-05-19 15:06:00,65.8,59.8,30.04,East,90,2.7,-999.0,81,-99.99,,,0.00,Acu-Link.com,2013-05-19 19:06:00,
2013-05-19 15:21:00,65.7,59.7,30.03,East,90,2.2,-999.0,81,-99.99,,,0.00,Acu-Link.com,2013-05-19 19:21:00,
2013-05-19 15:36:00,66.0,60.0,30.04,West,270,2.2,-999.0,81,-99.99,,,0.00,Acu-Link.com,2013-05-19 19:36:00,
2013-05-19 15:52:00,65.7,59.7,30.03,ESE,112,3.7,-999.0,81,-99.99,,,0.00,Acu-Link.com,2013-05-19 19:52:00,
2013-05-19 16:07:00,65.7,60.0,30.03,ESE,112,1.1,-999.0,82,-99.99,,,0.00,Acu-Link.com,2013-05-19 20:07:00,
2013-05-19 16:22:00,65.5,59.9,30.03,SE,135,1.7,-999.0,82,-99.99,,,0.00,Acu-Link.com,2013-05-19 20:22:00,
2013-05-19 16:37:00,65.1,59.8,30.03,ESE,112,3.7,-999.0,83,-99.99,,,0.00,Acu-Link.com,2013-05-19 20:37:00,
2013-05-19 16:53:00,64.9,59.6,30.02,WNW,292,5.8,-999.0,83,-99.99,,,0.00,Acu-Link.com,2013-05-19 20:53:00,
2013-05-19 17:08:00,64.9,59.6,30.03,ESE,112,2.2,-999.0,83,-99.99,,,0.00,Acu-Link.com,2013-05-19 21:08:00,
2013-05-19 17:23:00,64.6,59.7,30.03,East,90,4.2,-999.0,84,-99.99,,,0.00,Acu-Link.com,2013-05-19 21:23:00,
2013-05-19 17:39:00,64.6,59.7,30.03,NNE,22,2.2,-999.0,84,-99.99,,,0.00,Acu-Link.com,2013-05-19 21:39:00,
2013-05-19 17:54:00,64.8,59.8,30.03,NNW,337,3.7,-999.0,84,-99.99,,,0.00,Acu-Link.com,2013-05-19 21:54:00,
2013-05-19 18:09:00,64.4,59.5,30.03,ESE,112,2.7,-999.0,84,-99.99,,,0.00,Acu-Link.com,2013-05-19 22:09:00,
2013-05-19 18:25:00,64.0,59.4,30.03,East,90,2.7,-999.0,85,-99.99,,,0.00,Acu-Link.com,2013-05-19 22:25:00,
2013-05-19 18:40:00,64.0,59.7,30.03,ESE,112,4.7,-999.0,86,-99.99,,,0.00,Acu-Link.com,2013-05-19 22:40:00,
2013-05-19 18:55:00,63.9,60.0,30.04,SSW,202,3.2,-999.0,87,-99.99,,,0.00,Acu-Link.com,2013-05-19 22:55:00,
2013-05-19 19:10:00,63.7,59.8,30.04,SSE,157,1.1,-999.0,87,-99.99,,,0.00,Acu-Link.com,2013-05-19 23:10:00,
2013-05-19 19:26:00,63.3,59.7,30.03,SE,135,1.7,-999.0,88,-99.99,,,0.00,Acu-Link.com,2013-05-19 23:26:00,
2013-05-19 19:41:00,63.1,59.8,30.03,SSE,157,1.7,-999.0,89,-99.99,,,0.00,Acu-Link.com,2013-05-19 23:41:00,
2013-05-19 19:56:00,62.8,59.8,30.03,SSE,157,2.7,-999.0,90,-99.99,,,0.00,Acu-Link.com,2013-05-19 23:56:00,
2013-05-19 20:12:00,62.6,59.9,30.02,SE,135,3.7,-999.0,91,-99.99,,,0.00,Acu-Link.com,2013-05-20 00:12:00,
2013-05-19 20:27:00,62.4,59.7,30.01,West,270,0.0,-999.0,91,-99.99,,,0.00,Acu-Link.com,2013-05-20 00:27:00,
2013-05-19 20:42:00,62.1,60.0,30.02,WSW,247,0.0,-999.0,93,-99.99,,,0.00,Acu-Link.com,2013-05-20 00:42:00,
2013-05-19 20:58:00,61.5,59.8,30.01,West,270,0.0,-999.0,94,-99.99,,,0.00,Acu-Link.com,2013-05-20 00:58:00,
2013-05-19 21:13:00,61.3,59.9,30.02,West,270,0.0,-999.0,95,-99.99,,,0.00,Acu-Link.com,2013-05-20 01:13:00,
2013-05-19 21:28:00,61.3,59.9,30.03,WNW,292,0.0,-999.0,95,-99.99,,,0.00,Acu-Link.com,2013-05-20 01:28:00,
2013-05-19 21:44:00,61.2,59.8,30.03,East,90,0.0,-999.0,95,-99.99,,,0.00,Acu-Link.com,2013-05-20 01:44:00,
2013-05-19 21:59:00,61.0,59.6,30.05,West,270,0.0,-999.0,95,-99.99,,,0.00,Acu-Link.com,2013-05-20 01:59:00,
2013-05-19 22:14:00,60.8,59.4,30.04,SW,225,0.0,-999.0,95,-99.99,,,0.00,Acu-Link.com,2013-05-20 02:14:00,
2013-05-19 22:30:00,60.8,59.4,30.04,NNW,337,0.0,-999.0,95,-99.99,,,0.00,Acu-Link.com,2013-05-20 02:30:00,
2013-05-19 22:45:00,60.8,59.4,30.03,East,90,0.0,-999.0,95,-99.99,,,0.00,Acu-Link.com,2013-05-20 02:45:00,
2013-05-19 23:00:00,60.8,59.4,30.03,SW,225,0.0,-999.0,95,-99.99,,,0.00,Acu-Link.com,2013-05-20 03:00:00,
2013-05-19 23:15:00,60.8,59.4,30.02,SSW,202,0.0,-999.0,95,-99.99,,,0.00,Acu-Link.com,2013-05-20 03:15:00,
2013-05-19 23:31:00,60.6,59.2,30.03,West,270,0.0,-999.0,95,-99.99,,,0.00,Acu-Link.com,2013-05-20 03:31:00,
2013-05-19 23:46:00,60.6,59.2,30.02,ESE,112,0.0,-999.0,95,-99.99,,,0.00,Acu-Link.com,2013-05-20 03:46:00,